sensor_id;sensor_type;location;lat;lon;timestamp;temperature;humidity
17671;DHT22;8954;48.694;8.940;2023-03-21T07:26:27;12.00;99.90
17671;DHT22;8954;48.694;8.940;2023-03-21T07:28:53;12.70;99.90
17671;DHT22;8954;48.694;8.940;2023-03-21T07:31:19;13.50;99.90
17671;DHT22;8954;48.694;8.940;2023-03-21T07:33:44;14.30;99.90
17671;DHT22;8954;48.694;8.940;2023-03-21T07:36:14;14.80;99.90
17671;DHT22;8954;48.694;8.940;2023-03-21T07:41:06;17.60;99.90
17671;DHT22;8954;48.694;8.940;2023-03-21T07:43:32;17.90;99.90
17671;DHT22;8954;48.694;8.940;2023-03-21T07:45:58;18.40;99.90
17671;DHT22;8954;48.694;8.940;2023-03-21T07:48:24;19.70;97.70
17671;DHT22;8954;48.694;8.940;2023-03-21T07:50:49;21.00;92.60
17671;DHT22;8954;48.694;8.940;2023-03-21T07:53:15;21.60;90.80
17671;DHT22;8954;48.694;8.940;2023-03-21T07:55:40;21.10;90.30
17671;DHT22;8954;48.694;8.940;2023-03-21T07:58:06;20.10;90.70
17671;DHT22;8954;48.694;8.940;2023-03-21T08:00:32;19.40;92.00
17671;DHT22;8954;48.694;8.940;2023-03-21T08:02:58;19.00;91.10
17671;DHT22;8954;48.694;8.940;2023-03-21T08:07:51;18.10;92.30
17671;DHT22;8954;48.694;8.940;2023-03-21T08:10:18;17.40;93.60
17671;DHT22;8954;48.694;8.940;2023-03-21T08:12:44;16.50;95.30
17671;DHT22;8954;48.694;8.940;2023-03-21T08:15:11;16.50;94.40
17671;DHT22;8954;48.694;8.940;2023-03-21T08:17:37;17.20;93.40
17671;DHT22;8954;48.694;8.940;2023-03-21T08:20:08;18.00;93.20
17671;DHT22;8954;48.694;8.940;2023-03-21T08:22:36;19.70;90.40
17671;DHT22;8954;48.694;8.940;2023-03-21T08:25:06;20.80;86.10
17671;DHT22;8954;48.694;8.940;2023-03-21T08:27:32;21.90;83.70
17671;DHT22;8954;48.694;8.940;2023-03-21T08:32:25;24.00;74.70
17671;DHT22;8954;48.694;8.940;2023-03-21T08:34:54;23.80;73.40
17671;DHT22;8954;48.694;8.940;2023-03-21T08:37:20;23.90;73.40
17671;DHT22;8954;48.694;8.940;2023-03-21T08:39:46;24.40;71.60
17671;DHT22;8954;48.694;8.940;2023-03-21T08:42:11;24.90;66.60
17671;DHT22;8954;48.694;8.940;2023-03-21T08:44:37;25.40;64.10
17671;DHT22;8954;48.694;8.940;2023-03-21T08:47:04;26.30;61.70
17671;DHT22;8954;48.694;8.940;2023-03-21T08:49:30;27.00;59.30
17671;DHT22;8954;48.694;8.940;2023-03-21T08:51:56;25.40;59.80
17671;DHT22;8954;48.694;8.940;2023-03-21T08:54:22;25.30;62.10
17671;DHT22;8954;48.694;8.940;2023-03-21T08:56:48;26.30;61.90
17671;DHT22;8954;48.694;8.940;2023-03-21T08:59:14;26.10;60.80
17671;DHT22;8954;48.694;8.940;2023-03-21T09:01:40;26.80;59.30
17671;DHT22;8954;48.694;8.940;2023-03-21T09:04:06;26.30;60.20
17671;DHT22;8954;48.694;8.940;2023-03-21T09:06:38;25.50;60.60
17671;DHT22;8954;48.694;8.940;2023-03-21T09:09:10;25.90;61.40
17671;DHT22;8954;48.694;8.940;2023-03-21T09:11:36;27.30;57.90
17671;DHT22;8954;48.694;8.940;2023-03-21T09:14:02;27.40;58.10
17671;DHT22;8954;48.694;8.940;2023-03-21T09:16:28;27.10;59.10
17671;DHT22;8954;48.694;8.940;2023-03-21T09:18:53;28.40;55.70
17671;DHT22;8954;48.694;8.940;2023-03-21T09:21:22;28.40;55.10
17671;DHT22;8954;48.694;8.940;2023-03-21T09:23:49;28.30;56.10
17671;DHT22;8954;48.694;8.940;2023-03-21T09:26:19;28.10;54.70
17671;DHT22;8954;48.694;8.940;2023-03-21T09:28:45;28.40;54.70
17671;DHT22;8954;48.694;8.940;2023-03-21T09:31:11;28.90;53.60
17671;DHT22;8954;48.694;8.940;2023-03-21T09:33:41;27.50;54.00
17671;DHT22;8954;48.694;8.940;2023-03-21T09:36:09;26.80;56.20
17671;DHT22;8954;48.694;8.940;2023-03-21T09:38:44;26.90;56.00
17671;DHT22;8954;48.694;8.940;2023-03-21T09:41:36;26.10;58.00
17671;DHT22;8954;48.694;8.940;2023-03-21T09:44:07;25.30;58.70
17671;DHT22;8954;48.694;8.940;2023-03-21T09:46:48;24.60;60.00
17671;DHT22;8954;48.694;8.940;2023-03-21T09:49:22;24.60;59.60
17671;DHT22;8954;48.694;8.940;2023-03-21T09:51:51;24.70;60.20
17671;DHT22;8954;48.694;8.940;2023-03-21T09:54:44;24.80;57.00
17671;DHT22;8954;48.694;8.940;2023-03-21T09:59:50;23.70;59.60
17671;DHT22;8954;48.694;8.940;2023-03-21T10:02:39;23.60;59.60
17671;DHT22;8954;48.694;8.940;2023-03-21T10:05:16;24.40;59.00
17671;DHT22;8954;48.694;8.940;2023-03-21T10:07:48;24.60;58.30
17671;DHT22;8954;48.694;8.940;2023-03-21T10:10:19;24.20;59.40
17671;DHT22;8954;48.694;8.940;2023-03-21T10:12:47;23.90;60.00
17671;DHT22;8954;48.694;8.940;2023-03-21T10:15:17;23.90;59.40
17671;DHT22;8954;48.694;8.940;2023-03-21T10:17:50;23.50;59.90
17671;DHT22;8954;48.694;8.940;2023-03-21T10:20:43;23.00;59.90
17671;DHT22;8954;48.694;8.940;2023-03-21T10:23:14;22.40;61.00
17671;DHT22;8954;48.694;8.940;2023-03-21T10:25:47;21.90;63.30
17671;DHT22;8954;48.694;8.940;2023-03-21T10:28:20;21.50;65.30
17671;DHT22;8954;48.694;8.940;2023-03-21T10:30:51;21.50;63.10
17671;DHT22;8954;48.694;8.940;2023-03-21T10:33:23;21.00;66.20
17671;DHT22;8954;48.694;8.940;2023-03-21T10:35:55;20.60;67.10
17671;DHT22;8954;48.694;8.940;2023-03-21T10:38:25;20.60;67.10
17671;DHT22;8954;48.694;8.940;2023-03-21T10:40:51;20.70;66.50
17671;DHT22;8954;48.694;8.940;2023-03-21T10:45:53;20.10;69.70
17671;DHT22;8954;48.694;8.940;2023-03-21T10:48:19;19.80;71.10
17671;DHT22;8954;48.694;8.940;2023-03-21T10:50:47;20.20;72.80
17671;DHT22;8954;48.694;8.940;2023-03-21T10:53:38;20.60;70.30
17671;DHT22;8954;48.694;8.940;2023-03-21T10:56:06;20.40;71.20
17671;DHT22;8954;48.694;8.940;2023-03-21T10:58:37;20.20;72.40
17671;DHT22;8954;48.694;8.940;2023-03-21T11:01:06;20.10;73.40
17671;DHT22;8954;48.694;8.940;2023-03-21T11:03:38;19.60;73.70
17671;DHT22;8954;48.694;8.940;2023-03-21T11:06:14;19.30;74.20
17671;DHT22;8954;48.694;8.940;2023-03-21T11:08:48;19.20;74.50
17671;DHT22;8954;48.694;8.940;2023-03-21T11:11:25;19.00;75.30
17671;DHT22;8954;48.694;8.940;2023-03-21T11:14:01;18.80;76.70
17671;DHT22;8954;48.694;8.940;2023-03-21T11:16:37;19.00;76.00
17671;DHT22;8954;48.694;8.940;2023-03-21T11:19:15;19.20;74.50
17671;DHT22;8954;48.694;8.940;2023-03-21T11:21:42;19.40;74.00
17671;DHT22;8954;48.694;8.940;2023-03-21T11:24:16;19.00;75.60
17671;DHT22;8954;48.694;8.940;2023-03-21T11:26:47;18.60;77.30
17671;DHT22;8954;48.694;8.940;2023-03-21T11:29:37;18.70;76.00
17671;DHT22;8954;48.694;8.940;2023-03-21T11:35:13;18.40;77.60
17671;DHT22;8954;48.694;8.940;2023-03-21T11:37:44;18.30;78.70
17671;DHT22;8954;48.694;8.940;2023-03-21T11:40:29;18.00;78.30
17671;DHT22;8954;48.694;8.940;2023-03-21T11:43:01;18.00;79.70
17671;DHT22;8954;48.694;8.940;2023-03-21T11:45:32;17.80;78.00
17671;DHT22;8954;48.694;8.940;2023-03-21T11:48:01;17.90;77.70
17671;DHT22;8954;48.694;8.940;2023-03-21T11:50:40;18.10;77.50
17671;DHT22;8954;48.694;8.940;2023-03-21T12:01:14;18.60;74.20
17671;DHT22;8954;48.694;8.940;2023-03-21T12:15:17;17.80;76.30
17671;DHT22;8954;48.694;8.940;2023-03-21T12:26:21;19.60;71.40
17671;DHT22;8954;48.694;8.940;2023-03-21T12:29:18;20.00;71.60
17671;DHT22;8954;48.694;8.940;2023-03-21T12:32:04;20.70;70.70
17671;DHT22;8954;48.694;8.940;2023-03-21T12:37:59;21.90;65.20
17671;DHT22;8954;48.694;8.940;2023-03-21T12:43:27;21.80;63.90
17671;DHT22;8954;48.694;8.940;2023-03-21T12:46:03;21.80;65.40
17671;DHT22;8954;48.694;8.940;2023-03-21T12:51:10;23.10;61.70
17671;DHT22;8954;48.694;8.940;2023-03-21T12:56:59;24.40;57.20
17671;DHT22;8954;48.694;8.940;2023-03-21T12:59:37;23.40;59.70
17671;DHT22;8954;48.694;8.940;2023-03-21T13:05:19;22.80;61.60
17671;DHT22;8954;48.694;8.940;2023-03-21T13:07:47;22.90;61.70
17671;DHT22;8954;48.694;8.940;2023-03-21T13:10:20;22.70;61.60
17671;DHT22;8954;48.694;8.940;2023-03-21T13:15:54;22.50;61.60
17671;DHT22;8954;48.694;8.940;2023-03-21T13:18:57;22.20;62.50
17671;DHT22;8954;48.694;8.940;2023-03-21T13:22:31;21.60;64.10
17671;DHT22;8954;48.694;8.940;2023-03-21T13:24:40;21.50;63.90
17671;DHT22;8954;48.694;8.940;2023-03-21T13:27:24;21.30;63.70
17671;DHT22;8954;48.694;8.940;2023-03-21T13:30:01;21.00;64.40
17671;DHT22;8954;48.694;8.940;2023-03-21T13:32:36;20.70;65.10
17671;DHT22;8954;48.694;8.940;2023-03-21T13:35:21;20.40;65.80
17671;DHT22;8954;48.694;8.940;2023-03-21T13:38:04;19.90;67.20
17671;DHT22;8954;48.694;8.940;2023-03-21T13:40:41;19.70;68.10
17671;DHT22;8954;48.694;8.940;2023-03-21T13:43:42;19.40;69.10
17671;DHT22;8954;48.694;8.940;2023-03-21T13:48:57;19.20;69.60
17671;DHT22;8954;48.694;8.940;2023-03-21T13:54:29;18.60;71.00
17671;DHT22;8954;48.694;8.940;2023-03-21T14:00:26;18.70;70.40
17671;DHT22;8954;48.694;8.940;2023-03-21T14:03:27;18.60;70.80
17671;DHT22;8954;48.694;8.940;2023-03-21T14:05:50;18.70;71.10
17671;DHT22;8954;48.694;8.940;2023-03-21T14:08:17;18.70;71.40
17671;DHT22;8954;48.694;8.940;2023-03-21T14:10:47;18.90;71.70
17671;DHT22;8954;48.694;8.940;2023-03-21T14:13:19;19.00;71.80
17671;DHT22;8954;48.694;8.940;2023-03-21T14:18:15;19.00;71.00
17671;DHT22;8954;48.694;8.940;2023-03-21T14:20:40;19.20;70.80
17671;DHT22;8954;48.694;8.940;2023-03-21T14:23:13;19.10;70.90
17671;DHT22;8954;48.694;8.940;2023-03-21T14:25:39;19.10;71.10
17671;DHT22;8954;48.694;8.940;2023-03-21T14:28:13;19.00;70.70
17671;DHT22;8954;48.694;8.940;2023-03-21T14:30:41;19.00;70.60
17671;DHT22;8954;48.694;8.940;2023-03-21T14:33:30;19.20;70.40
17671;DHT22;8954;48.694;8.940;2023-03-21T14:35:58;19.70;70.60
17671;DHT22;8954;48.694;8.940;2023-03-21T14:38:26;20.30;69.10
17671;DHT22;8954;48.694;8.940;2023-03-21T14:40:54;20.70;68.40
17671;DHT22;8954;48.694;8.940;2023-03-21T14:43:21;21.10;67.50
17671;DHT22;8954;48.694;8.940;2023-03-21T14:45:55;21.00;65.40
17671;DHT22;8954;48.694;8.940;2023-03-21T14:48:28;20.70;66.70
17671;DHT22;8954;48.694;8.940;2023-03-21T14:50:56;20.50;68.20
17671;DHT22;8954;48.694;8.940;2023-03-21T14:53:27;20.20;68.00
17671;DHT22;8954;48.694;8.940;2023-03-21T14:56:06;20.20;68.60
17671;DHT22;8954;48.694;8.940;2023-03-21T14:58:33;20.20;68.40
17671;DHT22;8954;48.694;8.940;2023-03-21T15:01:04;19.80;67.70
17671;DHT22;8954;48.694;8.940;2023-03-21T15:03:30;19.80;68.70
17671;DHT22;8954;48.694;8.940;2023-03-21T15:05:57;20.00;68.50
17671;DHT22;8954;48.694;8.940;2023-03-21T15:08:24;19.80;68.30
17671;DHT22;8954;48.694;8.940;2023-03-21T15:11:11;19.80;70.20
17671;DHT22;8954;48.694;8.940;2023-03-21T15:13:48;19.50;76.70
17671;DHT22;8954;48.694;8.940;2023-03-21T15:16:17;19.30;79.10
17671;DHT22;8954;48.694;8.940;2023-03-21T15:18:43;19.30;78.90
17671;DHT22;8954;48.694;8.940;2023-03-21T15:21:32;19.10;79.60
17671;DHT22;8954;48.694;8.940;2023-03-21T15:24:14;18.70;80.40
17671;DHT22;8954;48.694;8.940;2023-03-21T15:26:46;18.20;82.90
17671;DHT22;8954;48.694;8.940;2023-03-21T15:29:14;18.00;84.00
17671;DHT22;8954;48.694;8.940;2023-03-21T15:31:40;17.90;84.40
17671;DHT22;8954;48.694;8.940;2023-03-21T15:34:06;17.70;84.50
17671;DHT22;8954;48.694;8.940;2023-03-21T15:36:46;17.50;85.80
17671;DHT22;8954;48.694;8.940;2023-03-21T15:39:14;17.10;86.60
17671;DHT22;8954;48.694;8.940;2023-03-21T15:41:41;16.90;87.50
17671;DHT22;8954;48.694;8.940;2023-03-21T15:44:21;16.70;89.50
17671;DHT22;8954;48.694;8.940;2023-03-21T15:46:48;16.50;88.80
17671;DHT22;8954;48.694;8.940;2023-03-21T15:55:09;16.20;91.00
17671;DHT22;8954;48.694;8.940;2023-03-21T15:57:35;16.10;91.40
17671;DHT22;8954;48.694;8.940;2023-03-21T16:00:07;16.10;91.70
17671;DHT22;8954;48.694;8.940;2023-03-21T16:02:38;16.00;91.70
17671;DHT22;8954;48.694;8.940;2023-03-21T16:05:27;16.00;91.90
17671;DHT22;8954;48.694;8.940;2023-03-21T16:07:57;16.00;92.10
17671;DHT22;8954;48.694;8.940;2023-03-21T16:10:27;15.80;92.10
17671;DHT22;8954;48.694;8.940;2023-03-21T16:12:53;15.60;92.60
17671;DHT22;8954;48.694;8.940;2023-03-21T16:15:18;15.50;92.80
17671;DHT22;8954;48.694;8.940;2023-03-21T16:17:50;15.50;92.70
17671;DHT22;8954;48.694;8.940;2023-03-21T16:20:22;15.40;93.40
17671;DHT22;8954;48.694;8.940;2023-03-21T16:22:48;15.30;93.70
17671;DHT22;8954;48.694;8.940;2023-03-21T16:25:13;15.30;94.10
17671;DHT22;8954;48.694;8.940;2023-03-21T16:27:40;15.20;94.10
17671;DHT22;8954;48.694;8.940;2023-03-21T16:30:06;15.10;94.20
17671;DHT22;8954;48.694;8.940;2023-03-21T16:32:32;15.00;94.60
17671;DHT22;8954;48.694;8.940;2023-03-21T16:34:59;14.90;94.90
17671;DHT22;8954;48.694;8.940;2023-03-21T16:37:25;14.90;95.30
17671;DHT22;8954;48.694;8.940;2023-03-21T16:39:51;14.90;96.00
17671;DHT22;8954;48.694;8.940;2023-03-21T16:42:16;14.80;96.50
17671;DHT22;8954;48.694;8.940;2023-03-21T16:44:45;14.70;96.50
17671;DHT22;8954;48.694;8.940;2023-03-21T16:47:21;14.70;96.80
17671;DHT22;8954;48.694;8.940;2023-03-21T16:49:48;14.50;97.20
17671;DHT22;8954;48.694;8.940;2023-03-21T16:52:14;14.50;97.70
17671;DHT22;8954;48.694;8.940;2023-03-21T16:54:41;14.40;98.30
17671;DHT22;8954;48.694;8.940;2023-03-21T16:57:14;14.40;98.50
17671;DHT22;8954;48.694;8.940;2023-03-21T16:59:42;14.30;98.90
17671;DHT22;8954;48.694;8.940;2023-03-21T17:02:14;14.20;99.30
17671;DHT22;8954;48.694;8.940;2023-03-21T17:04:42;14.20;99.90
17671;DHT22;8954;48.694;8.940;2023-03-21T17:07:10;14.10;99.90
17671;DHT22;8954;48.694;8.940;2023-03-21T17:09:39;14.10;99.90
17671;DHT22;8954;48.694;8.940;2023-03-21T17:12:09;14.00;99.90
17671;DHT22;8954;48.694;8.940;2023-03-21T17:14:38;14.00;99.90
17671;DHT22;8954;48.694;8.940;2023-03-21T17:17:04;13.90;99.90
17671;DHT22;8954;48.694;8.940;2023-03-21T17:19:29;13.90;99.90
17671;DHT22;8954;48.694;8.940;2023-03-21T17:21:56;13.80;99.90
17671;DHT22;8954;48.694;8.940;2023-03-21T17:24:21;13.60;99.90
17671;DHT22;8954;48.694;8.940;2023-03-21T17:26:48;13.50;99.90
17671;DHT22;8954;48.694;8.940;2023-03-21T17:29:14;13.40;99.90
17671;DHT22;8954;48.694;8.940;2023-03-21T17:31:40;13.40;99.90
17671;DHT22;8954;48.694;8.940;2023-03-21T17:34:06;13.30;99.90
17671;DHT22;8954;48.694;8.940;2023-03-21T17:36:35;13.30;99.90
17671;DHT22;8954;48.694;8.940;2023-03-21T17:39:05;13.20;99.90
17671;DHT22;8954;48.694;8.940;2023-03-21T17:41:31;13.10;99.90
17671;DHT22;8954;48.694;8.940;2023-03-21T17:43:57;13.10;99.90
17671;DHT22;8954;48.694;8.940;2023-03-21T17:46:24;13.00;99.90
